sensor_id;sensor_type;location;lat;lon;timestamp;temperature;humidity
9901;DHT22;4989;48.772;9.154;2023-11-21T00:01:58;8.80;99.90
9901;DHT22;4989;48.772;9.154;2023-11-21T00:07:00;8.70;99.90
9901;DHT22;4989;48.772;9.154;2023-11-21T00:12:03;8.70;99.90
9901;DHT22;4989;48.772;9.154;2023-11-21T00:17:06;8.80;99.90
9901;DHT22;4989;48.772;9.154;2023-11-21T00:22:08;8.70;99.90
9901;DHT22;4989;48.772;9.154;2023-11-21T00:27:11;8.70;99.90
9901;DHT22;4989;48.772;9.154;2023-11-21T00:32:14;8.70;99.90
9901;DHT22;4989;48.772;9.154;2023-11-21T00:37:16;8.70;99.90
9901;DHT22;4989;48.772;9.154;2023-11-21T00:42:18;8.70;99.90
9901;DHT22;4989;48.772;9.154;2023-11-21T00:47:21;8.70;99.90
9901;DHT22;4989;48.772;9.154;2023-11-21T00:52:24;8.70;99.90
9901;DHT22;4989;48.772;9.154;2023-11-21T00:57:26;8.70;99.90
9901;DHT22;4989;48.772;9.154;2023-11-21T01:02:29;8.70;99.90
9901;DHT22;4989;48.772;9.154;2023-11-21T01:07:31;8.90;99.90
9901;DHT22;4989;48.772;9.154;2023-11-21T01:12:38;8.80;99.90
9901;DHT22;4989;48.772;9.154;2023-11-21T01:17:40;8.70;99.90
9901;DHT22;4989;48.772;9.154;2023-11-21T01:22:43;8.70;99.90
9901;DHT22;4989;48.772;9.154;2023-11-21T01:27:45;8.70;99.90
9901;DHT22;4989;48.772;9.154;2023-11-21T01:32:47;8.70;99.90
9901;DHT22;4989;48.772;9.154;2023-11-21T01:37:50;8.70;99.90
9901;DHT22;4989;48.772;9.154;2023-11-21T01:42:53;8.80;99.90
9901;DHT22;4989;48.772;9.154;2023-11-21T01:47:55;8.80;99.90
9901;DHT22;4989;48.772;9.154;2023-11-21T01:52:58;8.90;99.90
9901;DHT22;4989;48.772;9.154;2023-11-21T01:58:02;8.90;99.90
9901;DHT22;4989;48.772;9.154;2023-11-21T02:03:04;8.90;99.90
9901;DHT22;4989;48.772;9.154;2023-11-21T02:08:09;8.90;99.90
9901;DHT22;4989;48.772;9.154;2023-11-21T02:13:11;8.90;99.90
9901;DHT22;4989;48.772;9.154;2023-11-21T02:18:14;8.90;99.90
9901;DHT22;4989;48.772;9.154;2023-11-21T02:23:17;8.90;99.90
9901;DHT22;4989;48.772;9.154;2023-11-21T02:28:19;8.90;99.90
9901;DHT22;4989;48.772;9.154;2023-11-21T02:33:28;8.90;99.90
9901;DHT22;4989;48.772;9.154;2023-11-21T02:38:30;8.90;99.90
9901;DHT22;4989;48.772;9.154;2023-11-21T02:43:32;8.90;99.90
9901;DHT22;4989;48.772;9.154;2023-11-21T02:48:35;8.90;99.90
9901;DHT22;4989;48.772;9.154;2023-11-21T02:53:37;8.90;99.90
9901;DHT22;4989;48.772;9.154;2023-11-21T02:58:43;8.80;99.90
9901;DHT22;4989;48.772;9.154;2023-11-21T03:03:46;8.70;99.90
9901;DHT22;4989;48.772;9.154;2023-11-21T03:08:49;8.80;99.90
9901;DHT22;4989;48.772;9.154;2023-11-21T03:13:52;8.70;99.90
9901;DHT22;4989;48.772;9.154;2023-11-21T03:18:55;8.80;99.90
9901;DHT22;4989;48.772;9.154;2023-11-21T03:23:57;8.70;99.90
9901;DHT22;4989;48.772;9.154;2023-11-21T03:28:59;8.80;99.90
9901;DHT22;4989;48.772;9.154;2023-11-21T03:34:01;8.80;99.90
9901;DHT22;4989;48.772;9.154;2023-11-21T03:39:03;8.80;99.90
9901;DHT22;4989;48.772;9.154;2023-11-21T03:44:07;8.80;99.90
9901;DHT22;4989;48.772;9.154;2023-11-21T03:49:09;8.80;99.90
9901;DHT22;4989;48.772;9.154;2023-11-21T03:54:12;8.70;99.90
9901;DHT22;4989;48.772;9.154;2023-11-21T03:59:16;8.70;99.90
9901;DHT22;4989;48.772;9.154;2023-11-21T04:04:18;8.80;99.90
9901;DHT22;4989;48.772;9.154;2023-11-21T04:09:21;8.70;99.90
9901;DHT22;4989;48.772;9.154;2023-11-21T04:14:27;8.50;99.90
9901;DHT22;4989;48.772;9.154;2023-11-21T04:19:29;8.50;99.90
9901;DHT22;4989;48.772;9.154;2023-11-21T04:24:31;8.50;99.90
9901;DHT22;4989;48.772;9.154;2023-11-21T04:29:34;8.50;99.90
9901;DHT22;4989;48.772;9.154;2023-11-21T04:34:36;8.60;99.90
9901;DHT22;4989;48.772;9.154;2023-11-21T04:39:39;8.70;99.90
9901;DHT22;4989;48.772;9.154;2023-11-21T04:44:41;8.80;99.90
9901;DHT22;4989;48.772;9.154;2023-11-21T04:49:43;9.20;99.90
9901;DHT22;4989;48.772;9.154;2023-11-21T04:54:49;9.80;99.90
9901;DHT22;4989;48.772;9.154;2023-11-21T04:59:51;10.00;99.90
9901;DHT22;4989;48.772;9.154;2023-11-21T05:04:53;9.80;99.90
9901;DHT22;4989;48.772;9.154;2023-11-21T05:09:55;10.00;99.90
9901;DHT22;4989;48.772;9.154;2023-11-21T05:14:57;10.10;99.90
9901;DHT22;4989;48.772;9.154;2023-11-21T05:20:00;10.00;99.90
9901;DHT22;4989;48.772;9.154;2023-11-21T05:25:06;9.90;99.90
9901;DHT22;4989;48.772;9.154;2023-11-21T05:30:11;10.30;99.90
9901;DHT22;4989;48.772;9.154;2023-11-21T05:35:16;10.40;99.90
9901;DHT22;4989;48.772;9.154;2023-11-21T05:40:19;10.50;99.90
9901;DHT22;4989;48.772;9.154;2023-11-21T05:45:24;10.60;99.90
9901;DHT22;4989;48.772;9.154;2023-11-21T05:50:27;10.60;99.90
9901;DHT22;4989;48.772;9.154;2023-11-21T05:55:30;10.70;99.90
9901;DHT22;4989;48.772;9.154;2023-11-21T06:00:33;9.80;99.90
9901;DHT22;4989;48.772;9.154;2023-11-21T06:05:35;9.60;99.90
9901;DHT22;4989;48.772;9.154;2023-11-21T06:10:37;10.10;99.90
9901;DHT22;4989;48.772;9.154;2023-11-21T06:15:41;10.00;99.90
9901;DHT22;4989;48.772;9.154;2023-11-21T06:20:44;10.20;99.90
9901;DHT22;4989;48.772;9.154;2023-11-21T06:25:46;10.10;99.90
9901;DHT22;4989;48.772;9.154;2023-11-21T06:30:48;9.90;99.90
9901;DHT22;4989;48.772;9.154;2023-11-21T06:35:52;9.30;99.90
9901;DHT22;4989;48.772;9.154;2023-11-21T06:40:54;9.20;99.90
9901;DHT22;4989;48.772;9.154;2023-11-21T06:45:57;9.20;99.90
9901;DHT22;4989;48.772;9.154;2023-11-21T06:50:59;9.20;99.90
9901;DHT22;4989;48.772;9.154;2023-11-21T06:56:01;9.80;99.90
9901;DHT22;4989;48.772;9.154;2023-11-21T07:01:04;9.70;99.90
9901;DHT22;4989;48.772;9.154;2023-11-21T07:06:08;10.10;99.90
9901;DHT22;4989;48.772;9.154;2023-11-21T07:11:10;10.10;99.90
9901;DHT22;4989;48.772;9.154;2023-11-21T07:16:14;10.90;99.90
9901;DHT22;4989;48.772;9.154;2023-11-21T07:21:17;10.80;99.90
9901;DHT22;4989;48.772;9.154;2023-11-21T07:26:19;10.70;99.90
9901;DHT22;4989;48.772;9.154;2023-11-21T07:31:23;10.40;99.90
9901;DHT22;4989;48.772;9.154;2023-11-21T07:36:26;10.50;99.90
9901;DHT22;4989;48.772;9.154;2023-11-21T07:41:29;10.50;99.90
9901;DHT22;4989;48.772;9.154;2023-11-21T07:46:33;10.50;99.90
9901;DHT22;4989;48.772;9.154;2023-11-21T07:51:35;11.00;99.90
9901;DHT22;4989;48.772;9.154;2023-11-21T07:56:37;10.70;99.90
9901;DHT22;4989;48.772;9.154;2023-11-21T08:01:39;10.30;99.90
9901;DHT22;4989;48.772;9.154;2023-11-21T08:06:42;10.00;99.90
9901;DHT22;4989;48.772;9.154;2023-11-21T08:11:44;9.80;99.90
9901;DHT22;4989;48.772;9.154;2023-11-21T08:16:48;9.70;99.90
9901;DHT22;4989;48.772;9.154;2023-11-21T08:21:51;9.60;99.90
9901;DHT22;4989;48.772;9.154;2023-11-21T08:26:56;9.50;99.90
9901;DHT22;4989;48.772;9.154;2023-11-21T08:31:58;9.70;99.90
9901;DHT22;4989;48.772;9.154;2023-11-21T08:37:02;10.20;99.90
9901;DHT22;4989;48.772;9.154;2023-11-21T08:42:04;11.00;99.90
9901;DHT22;4989;48.772;9.154;2023-11-21T08:47:07;10.20;99.90
9901;DHT22;4989;48.772;9.154;2023-11-21T08:52:10;10.10;99.90
9901;DHT22;4989;48.772;9.154;2023-11-21T08:57:12;10.50;99.90
9901;DHT22;4989;48.772;9.154;2023-11-21T09:02:14;10.60;99.90
9901;DHT22;4989;48.772;9.154;2023-11-21T09:07:16;10.90;99.90
9901;DHT22;4989;48.772;9.154;2023-11-21T09:12:22;10.80;99.90
9901;DHT22;4989;48.772;9.154;2023-11-21T09:17:26;11.00;99.90
9901;DHT22;4989;48.772;9.154;2023-11-21T09:22:29;11.50;99.90
9901;DHT22;4989;48.772;9.154;2023-11-21T09:27:31;11.80;99.90
9901;DHT22;4989;48.772;9.154;2023-11-21T09:32:34;11.30;99.90
9901;DHT22;4989;48.772;9.154;2023-11-21T09:37:37;10.90;99.90
9901;DHT22;4989;48.772;9.154;2023-11-21T09:42:46;11.90;99.90
9901;DHT22;4989;48.772;9.154;2023-11-21T09:47:56;12.80;99.90
9901;DHT22;4989;48.772;9.154;2023-11-21T09:53:17;13.20;99.90
9901;DHT22;4989;48.772;9.154;2023-11-21T09:58:23;11.90;99.90
9901;DHT22;4989;48.772;9.154;2023-11-21T10:03:27;11.10;99.90
9901;DHT22;4989;48.772;9.154;2023-11-21T10:08:29;11.20;99.90
9901;DHT22;4989;48.772;9.154;2023-11-21T10:13:53;11.60;99.90
9901;DHT22;4989;48.772;9.154;2023-11-21T10:18:58;13.00;99.90
9901;DHT22;4989;48.772;9.154;2023-11-21T10:24:12;13.50;99.90
9901;DHT22;4989;48.772;9.154;2023-11-21T10:29:14;13.50;99.90
9901;DHT22;4989;48.772;9.154;2023-11-21T10:34:20;13.90;99.90
9901;DHT22;4989;48.772;9.154;2023-11-21T10:39:24;13.70;99.90
9901;DHT22;4989;48.772;9.154;2023-11-21T10:44:32;13.50;99.90
9901;DHT22;4989;48.772;9.154;2023-11-21T10:49:37;13.20;99.90
9901;DHT22;4989;48.772;9.154;2023-11-21T10:54:39;12.60;99.90
9901;DHT22;4989;48.772;9.154;2023-11-21T10:59:41;12.90;99.90
9901;DHT22;4989;48.772;9.154;2023-11-21T11:04:48;13.40;99.90
9901;DHT22;4989;48.772;9.154;2023-11-21T11:09:51;13.10;99.90
9901;DHT22;4989;48.772;9.154;2023-11-21T11:14:55;12.90;99.90
9901;DHT22;4989;48.772;9.154;2023-11-21T11:19:58;12.90;99.90
9901;DHT22;4989;48.772;9.154;2023-11-21T11:30:43;12.10;99.90
9901;DHT22;4989;48.772;9.154;2023-11-21T11:41:31;13.40;99.90
9901;DHT22;4989;48.772;9.154;2023-11-21T11:46:45;13.80;99.90
9901;DHT22;4989;48.772;9.154;2023-11-21T11:51:48;13.40;99.90
9901;DHT22;4989;48.772;9.154;2023-11-21T11:57:34;13.40;99.90
9901;DHT22;4989;48.772;9.154;2023-11-21T12:02:40;14.50;99.90
9901;DHT22;4989;48.772;9.154;2023-11-21T12:07:46;15.00;99.90
9901;DHT22;4989;48.772;9.154;2023-11-21T12:13:05;15.10;99.90
9901;DHT22;4989;48.772;9.154;2023-11-21T12:18:14;15.00;99.90
9901;DHT22;4989;48.772;9.154;2023-11-21T12:23:16;14.80;99.90
9901;DHT22;4989;48.772;9.154;2023-11-21T12:28:19;15.00;99.90
9901;DHT22;4989;48.772;9.154;2023-11-21T12:33:21;15.30;99.90
9901;DHT22;4989;48.772;9.154;2023-11-21T12:38:24;15.50;99.90
9901;DHT22;4989;48.772;9.154;2023-11-21T12:43:26;15.60;99.90
9901;DHT22;4989;48.772;9.154;2023-11-21T12:48:31;15.50;99.90
9901;DHT22;4989;48.772;9.154;2023-11-21T12:53:34;15.30;99.90
9901;DHT22;4989;48.772;9.154;2023-11-21T12:58:39;15.20;99.90
9901;DHT22;4989;48.772;9.154;2023-11-21T13:03:48;15.30;99.90
9901;DHT22;4989;48.772;9.154;2023-11-21T13:08:54;15.30;99.90
9901;DHT22;4989;48.772;9.154;2023-11-21T13:13:59;15.60;99.90
9901;DHT22;4989;48.772;9.154;2023-11-21T13:19:02;15.60;99.90
9901;DHT22;4989;48.772;9.154;2023-11-21T13:24:05;14.50;99.90
9901;DHT22;4989;48.772;9.154;2023-11-21T13:29:07;15.00;99.90
9901;DHT22;4989;48.772;9.154;2023-11-21T13:34:10;15.10;99.90
9901;DHT22;4989;48.772;9.154;2023-11-21T13:39:21;15.20;99.90
9901;DHT22;4989;48.772;9.154;2023-11-21T13:44:24;15.40;99.90
9901;DHT22;4989;48.772;9.154;2023-11-21T13:49:36;15.30;99.90
9901;DHT22;4989;48.772;9.154;2023-11-21T13:54:42;15.10;99.90
9901;DHT22;4989;48.772;9.154;2023-11-21T13:59:44;15.10;99.90
9901;DHT22;4989;48.772;9.154;2023-11-21T14:04:47;14.80;99.90
9901;DHT22;4989;48.772;9.154;2023-11-21T14:10:03;14.50;99.90
9901;DHT22;4989;48.772;9.154;2023-11-21T14:15:09;14.70;99.90
9901;DHT22;4989;48.772;9.154;2023-11-21T14:20:13;14.80;99.90
9901;DHT22;4989;48.772;9.154;2023-11-21T14:25:22;14.80;99.90
9901;DHT22;4989;48.772;9.154;2023-11-21T14:30:26;14.90;99.90
9901;DHT22;4989;48.772;9.154;2023-11-21T14:35:29;15.00;99.90
9901;DHT22;4989;48.772;9.154;2023-11-21T14:40:34;14.90;99.90
9901;DHT22;4989;48.772;9.154;2023-11-21T14:45:38;15.00;99.90
9901;DHT22;4989;48.772;9.154;2023-11-21T14:50:40;14.80;99.90
9901;DHT22;4989;48.772;9.154;2023-11-21T14:56:01;14.70;99.90
9901;DHT22;4989;48.772;9.154;2023-11-21T15:01:06;14.80;99.90
9901;DHT22;4989;48.772;9.154;2023-11-21T15:06:10;14.70;99.90
9901;DHT22;4989;48.772;9.154;2023-11-21T15:11:23;14.70;99.90
9901;DHT22;4989;48.772;9.154;2023-11-21T15:16:33;14.80;99.90
9901;DHT22;4989;48.772;9.154;2023-11-21T15:21:40;14.60;99.90
9901;DHT22;4989;48.772;9.154;2023-11-21T15:26:43;14.60;99.90
9901;DHT22;4989;48.772;9.154;2023-11-21T15:31:45;14.60;99.90
9901;DHT22;4989;48.772;9.154;2023-11-21T15:36:50;14.80;99.90
9901;DHT22;4989;48.772;9.154;2023-11-21T15:41:55;14.80;99.90
9901;DHT22;4989;48.772;9.154;2023-11-21T15:47:00;14.70;99.90
9901;DHT22;4989;48.772;9.154;2023-11-21T15:52:06;14.60;99.90
9901;DHT22;4989;48.772;9.154;2023-11-21T15:57:09;14.00;99.90
9901;DHT22;4989;48.772;9.154;2023-11-21T16:02:12;13.70;99.90
9901;DHT22;4989;48.772;9.154;2023-11-21T16:07:17;14.20;99.90
9901;DHT22;4989;48.772;9.154;2023-11-21T16:12:20;14.40;99.90
9901;DHT22;4989;48.772;9.154;2023-11-21T16:17:24;14.70;99.90
9901;DHT22;4989;48.772;9.154;2023-11-21T16:22:26;14.80;99.90
9901;DHT22;4989;48.772;9.154;2023-11-21T16:27:30;14.80;99.90
9901;DHT22;4989;48.772;9.154;2023-11-21T16:32:32;14.90;99.90
9901;DHT22;4989;48.772;9.154;2023-11-21T16:37:37;14.80;99.90
9901;DHT22;4989;48.772;9.154;2023-11-21T16:42:41;15.00;99.90
9901;DHT22;4989;48.772;9.154;2023-11-21T16:47:43;14.90;99.90
9901;DHT22;4989;48.772;9.154;2023-11-21T16:52:45;14.80;99.90
9901;DHT22;4989;48.772;9.154;2023-11-21T16:57:48;13.90;99.90
9901;DHT22;4989;48.772;9.154;2023-11-21T17:02:51;13.30;99.90
9901;DHT22;4989;48.772;9.154;2023-11-21T17:07:54;12.90;99.90
9901;DHT22;4989;48.772;9.154;2023-11-21T17:12:56;12.40;99.90
9901;DHT22;4989;48.772;9.154;2023-11-21T17:17:59;12.30;99.90
9901;DHT22;4989;48.772;9.154;2023-11-21T17:23:03;12.30;99.90
9901;DHT22;4989;48.772;9.154;2023-11-21T17:28:07;12.30;99.90
9901;DHT22;4989;48.772;9.154;2023-11-21T17:33:18;12.20;99.90
9901;DHT22;4989;48.772;9.154;2023-11-21T17:38:20;12.10;99.90
9901;DHT22;4989;48.772;9.154;2023-11-21T17:43:23;12.00;99.90
9901;DHT22;4989;48.772;9.154;2023-11-21T17:48:25;11.90;99.90
9901;DHT22;4989;48.772;9.154;2023-11-21T17:53:31;11.90;99.90
9901;DHT22;4989;48.772;9.154;2023-11-21T17:58:34;12.00;99.90
9901;DHT22;4989;48.772;9.154;2023-11-21T18:03:36;12.00;99.90
9901;DHT22;4989;48.772;9.154;2023-11-21T18:08:43;12.00;99.90
9901;DHT22;4989;48.772;9.154;2023-11-21T18:13:45;11.90;99.90
9901;DHT22;4989;48.772;9.154;2023-11-21T18:18:47;12.00;99.90
9901;DHT22;4989;48.772;9.154;2023-11-21T18:23:52;12.00;99.90
9901;DHT22;4989;48.772;9.154;2023-11-21T18:28:54;12.00;99.90
9901;DHT22;4989;48.772;9.154;2023-11-21T18:33:56;12.00;99.90
9901;DHT22;4989;48.772;9.154;2023-11-21T18:38:58;12.00;99.90
9901;DHT22;4989;48.772;9.154;2023-11-21T18:44:00;12.20;99.90
9901;DHT22;4989;48.772;9.154;2023-11-21T18:49:04;12.20;99.90
9901;DHT22;4989;48.772;9.154;2023-11-21T18:54:06;12.10;99.90
9901;DHT22;4989;48.772;9.154;2023-11-21T18:59:09;12.10;99.90
9901;DHT22;4989;48.772;9.154;2023-11-21T19:04:12;12.00;99.90
9901;DHT22;4989;48.772;9.154;2023-11-21T19:09:16;12.00;99.90
9901;DHT22;4989;48.772;9.154;2023-11-21T19:14:18;12.00;99.90
9901;DHT22;4989;48.772;9.154;2023-11-21T19:19:20;11.90;99.90
9901;DHT22;4989;48.772;9.154;2023-11-21T19:24:22;11.70;99.90
9901;DHT22;4989;48.772;9.154;2023-11-21T19:29:25;11.80;99.90
9901;DHT22;4989;48.772;9.154;2023-11-21T19:34:27;11.80;99.90
9901;DHT22;4989;48.772;9.154;2023-11-21T19:39:31;11.90;99.90
9901;DHT22;4989;48.772;9.154;2023-11-21T19:44:33;11.90;99.90
9901;DHT22;4989;48.772;9.154;2023-11-21T19:49:38;12.00;99.90
9901;DHT22;4989;48.772;9.154;2023-11-21T19:54:40;11.90;99.90
9901;DHT22;4989;48.772;9.154;2023-11-21T19:59:43;11.90;99.90
9901;DHT22;4989;48.772;9.154;2023-11-21T20:04:46;11.80;99.90
9901;DHT22;4989;48.772;9.154;2023-11-21T20:09:49;11.80;99.90
9901;DHT22;4989;48.772;9.154;2023-11-21T20:14:51;11.90;99.90
9901;DHT22;4989;48.772;9.154;2023-11-21T20:19:54;11.90;99.90
9901;DHT22;4989;48.772;9.154;2023-11-21T20:24:56;12.00;99.90
9901;DHT22;4989;48.772;9.154;2023-11-21T20:29:58;12.00;99.90
9901;DHT22;4989;48.772;9.154;2023-11-21T20:35:03;12.00;99.90
9901;DHT22;4989;48.772;9.154;2023-11-21T20:40:09;12.00;99.90
9901;DHT22;4989;48.772;9.154;2023-11-21T20:45:13;11.90;99.90
9901;DHT22;4989;48.772;9.154;2023-11-21T20:50:16;11.90;99.90
9901;DHT22;4989;48.772;9.154;2023-11-21T20:55:19;11.80;99.90
9901;DHT22;4989;48.772;9.154;2023-11-21T21:00:22;11.80;99.90
9901;DHT22;4989;48.772;9.154;2023-11-21T21:05:27;11.80;99.90
9901;DHT22;4989;48.772;9.154;2023-11-21T21:10:30;11.90;99.90
9901;DHT22;4989;48.772;9.154;2023-11-21T21:15:32;11.90;99.90
9901;DHT22;4989;48.772;9.154;2023-11-21T21:20:34;11.80;99.90
9901;DHT22;4989;48.772;9.154;2023-11-21T21:25:38;11.90;99.90
9901;DHT22;4989;48.772;9.154;2023-11-21T21:30:40;11.70;99.90
9901;DHT22;4989;48.772;9.154;2023-11-21T21:35:43;11.70;99.90
9901;DHT22;4989;48.772;9.154;2023-11-21T21:40:46;11.60;99.90
9901;DHT22;4989;48.772;9.154;2023-11-21T21:45:48;11.60;99.90
9901;DHT22;4989;48.772;9.154;2023-11-21T21:50:50;11.70;99.90
9901;DHT22;4989;48.772;9.154;2023-11-21T21:55:53;11.80;99.90
9901;DHT22;4989;48.772;9.154;2023-11-21T22:00:55;11.70;99.90
9901;DHT22;4989;48.772;9.154;2023-11-21T22:06:00;11.70;99.90
9901;DHT22;4989;48.772;9.154;2023-11-21T22:11:02;11.70;99.90
9901;DHT22;4989;48.772;9.154;2023-11-21T22:16:06;11.60;99.90
9901;DHT22;4989;48.772;9.154;2023-11-21T22:21:13;11.60;99.90
9901;DHT22;4989;48.772;9.154;2023-11-21T22:26:17;11.60;99.90
9901;DHT22;4989;48.772;9.154;2023-11-21T22:31:21;11.60;99.90
9901;DHT22;4989;48.772;9.154;2023-11-21T22:36:23;11.60;99.90
9901;DHT22;4989;48.772;9.154;2023-11-21T22:41:26;11.60;99.90
9901;DHT22;4989;48.772;9.154;2023-11-21T22:46:29;11.60;99.90
9901;DHT22;4989;48.772;9.154;2023-11-21T22:51:32;11.60;99.90
9901;DHT22;4989;48.772;9.154;2023-11-21T22:56:34;11.50;99.90
9901;DHT22;4989;48.772;9.154;2023-11-21T23:01:36;11.40;99.90
9901;DHT22;4989;48.772;9.154;2023-11-21T23:06:39;11.50;99.90
9901;DHT22;4989;48.772;9.154;2023-11-21T23:11:43;11.60;99.90
9901;DHT22;4989;48.772;9.154;2023-11-21T23:16:45;11.50;99.90
9901;DHT22;4989;48.772;9.154;2023-11-21T23:21:52;11.50;99.90
9901;DHT22;4989;48.772;9.154;2023-11-21T23:26:55;11.40;99.90
9901;DHT22;4989;48.772;9.154;2023-11-21T23:31:57;11.40;99.90
9901;DHT22;4989;48.772;9.154;2023-11-21T23:37:01;11.40;99.90
9901;DHT22;4989;48.772;9.154;2023-11-21T23:42:05;11.30;99.90
9901;DHT22;4989;48.772;9.154;2023-11-21T23:47:07;11.30;99.90
9901;DHT22;4989;48.772;9.154;2023-11-21T23:52:09;12.00;99.90
9901;DHT22;4989;48.772;9.154;2023-11-21T23:57:11;12.70;99.90
